Time;durP1;ratioP1;P1;durP2;ratioP2;P2;SDS_P1;SDS_P2;PMS_P1;PMS_P2;Temp;Humidity;BMP_temperature;BMP_pressure;BME280_temperature;BME280_humidity;BME280_pressure;Samples;Min_cycle;Max_cycle;Signal;HPM_P1;HPM_P2
2023/01/18 00:01:07;;;;;;;4.22;1.02;;;;;;;-0.31;100.00;99341.34;5041432;28;20025;-80
2023/01/18 00:03:33;;;;;;;3.67;1.58;;;;;;;-0.28;100.00;99343.69;5058073;28;20090;-78
2023/01/18 00:06:00;;;;;;;10.07;1.30;;;;;;;-0.32;100.00;99335.22;5041415;28;20448;-77
2023/01/18 00:08:29;;;;;;;1.45;0.85;;;;;;;-0.64;100.00;99295.91;5058199;28;20131;-80
2023/01/18 00:11:09;;;;;;;7.47;1.33;;;;;;;-0.23;100.00;99338.81;5058084;28;20103;-78
2023/01/18 00:13:35;;;;;;;0.68;0.60;;;;;;;-0.29;100.00;99323.53;5074243;28;20081;-79
2023/01/18 00:16:21;;;;;;;7.80;1.00;;;;;;;-0.25;100.00;99327.56;5057893;28;20025;-78
2023/01/18 00:18:55;;;;;;;2.35;0.90;;;;;;;-0.26;100.00;99315.34;5057125;28;20044;-77
2023/01/18 00:21:22;;;;;;;3.05;1.92;;;;;;;-0.29;100.00;99305.03;5041141;28;20111;-79
2023/01/18 00:23:47;;;;;;;10.38;1.75;;;;;;;-0.28;100.00;99307.53;5073929;28;20463;-79
2023/01/18 00:26:14;;;;;;;6.00;1.60;;;;;;;-0.29;100.00;99305.03;5074075;28;20100;-78
2023/01/18 00:28:43;;;;;;;4.35;1.45;;;;;;;-0.35;100.00;99310.88;5072663;28;20101;-77
2023/01/18 00:31:36;;;;;;;7.03;1.90;;;;;;;-0.38;100.00;99311.19;5057713;28;20039;-77
2023/01/18 00:34:02;;;;;;;2.78;1.08;;;;;;;-0.36;100.00;99327.72;5057642;28;20090;-78
2023/01/18 00:36:30;;;;;;;2.47;1.20;;;;;;;-0.38;100.00;99337.59;5041113;28;20032;-77
2023/01/18 00:38:57;;;;;;;5.40;1.40;;;;;;;-0.39;100.00;99330.66;5058038;28;20032;-77
2023/01/18 00:41:23;;;;;;;6.20;1.25;;;;;;;-0.39;100.00;99328.00;5057179;28;20394;-79
2023/01/18 00:43:49;;;;;;;2.97;1.20;;;;;;;-0.66;100.00;99289.97;5040760;28;20090;-77
2023/01/18 00:46:18;;;;;;;3.72;1.38;;;;;;;-0.43;100.00;99332.72;5073645;28;20028;-76
2023/01/18 00:48:47;;;;;;;3.38;2.17;;;;;;;-0.52;100.00;99328.28;5041636;28;20028;-76
2023/01/18 00:51:16;;;;;;;13.77;4.75;;;;;;;-0.62;100.00;99314.25;5057168;28;20093;-77
2023/01/18 00:53:43;;;;;;;8.20;3.33;;;;;;;-0.51;100.00;99351.91;5057039;28;20033;-76
2023/01/18 00:56:14;;;;;;;8.43;3.53;;;;;;;-0.58;100.00;99347.31;5040693;28;20032;-76
2023/01/18 00:58:41;;;;;;;11.43;2.00;;;;;;;-1.01;100.00;99301.88;5056864;28;20119;-79
2023/01/18 01:01:08;;;;;;;2.83;1.27;;;;;;;-0.73;100.00;99362.75;5040670;28;20035;-78
2023/01/18 01:06:45;;;;;;;4.05;1.25;;;;;;;-0.77;100.00;99350.78;5059744;28;20033;-78
2023/01/18 01:09:17;;;;;;;3.38;1.20;;;;;;;-0.59;100.00;99377.34;5057055;28;20028;-78
2023/01/18 01:12:33;;;;;;;2.20;1.52;;;;;;;-0.55;100.00;99370.81;5056989;28;20028;-77
2023/01/18 01:28:18;;;;;;;7.28;2.97;;;;;;;-0.35;100.00;99432.38;5073005;28;20081;-78
2023/01/18 01:30:44;;;;;;;17.40;9.77;;;;;;;-0.28;100.00;99436.16;5039862;28;20029;-78
2023/01/18 01:33:11;;;;;;;53.20;14.82;;;;;;;-0.30;100.00;99394.00;5040082;28;20033;-78
2023/01/18 01:35:37;;;;;;;14.60;4.97;;;;;;;-0.27;100.00;99399.00;5040021;28;20028;-79
2023/01/18 01:38:03;;;;;;;27.58;7.53;;;;;;;-0.26;100.00;99416.53;5055697;28;20040;-78
2023/01/18 01:40:28;;;;;;;17.02;6.00;;;;;;;-0.25;100.00;99420.00;5056012;28;20497;-77
2023/01/18 01:42:55;;;;;;;16.42;6.07;;;;;;;-0.24;100.00;99419.03;5072567;28;20040;-79
2023/01/18 01:45:24;;;;;;;18.38;3.65;;;;;;;-0.43;100.00;99380.25;5056531;28;20063;-80
2023/01/18 01:47:51;;;;;;;15.57;3.92;;;;;;;-0.25;100.00;99407.63;5056159;28;20032;-79
2023/01/18 01:50:27;;;;;;;11.73;4.72;;;;;;;-0.26;100.00;99391.94;5039774;28;20032;-77
2023/01/18 01:52:54;;;;;;;15.00;5.22;;;;;;;-0.27;100.00;99393.72;5072461;28;20125;-78
2023/01/18 01:55:39;;;;;;;12.80;5.50;;;;;;;-0.32;100.00;99395.97;5055510;28;20035;-79
2023/01/18 01:58:21;;;;;;;24.38;7.00;;;;;;;-0.28;100.00;99391.25;5039452;28;20387;-79
2023/01/18 02:00:47;;;;;;;47.97;11.23;;;;;;;-0.30;100.00;99382.63;5039605;28;20063;-78
2023/01/18 02:03:16;;;;;;;28.83;6.82;;;;;;;-0.33;100.00;99377.63;5039401;28;20475;-79
2023/01/18 02:05:44;;;;;;;34.75;9.10;;;;;;;-0.38;100.00;99377.19;5039386;28;20034;-78
2023/01/18 02:08:12;;;;;;;14.82;7.15;;;;;;;-0.47;100.00;99377.06;5038929;28;20040;-79
2023/01/18 02:10:38;;;;;;;33.63;9.15;;;;;;;-0.52;100.00;99386.38;5039264;28;20492;-78
2023/01/18 02:13:07;;;;;;;36.10;9.38;;;;;;;-0.60;100.00;99388.88;5055815;28;20039;-79
2023/01/18 02:15:43;;;;;;;39.80;10.60;;;;;;;-0.73;100.00;99397.88;5039165;28;20048;-79
2023/01/18 02:18:37;;;;;;;14.15;4.20;;;;;;;-0.84;100.00;99405.09;5072047;28;20159;-78
2023/01/18 02:21:08;;;;;;;11.35;2.85;;;;;;;-0.93;100.00;99417.28;5054578;28;20045;-78
2023/01/18 02:23:52;;;;;;;5.43;3.15;;;;;;;-0.96;100.00;99412.28;5038640;28;20127;-79
2023/01/18 02:26:40;;;;;;;13.23;3.05;;;;;;;-0.95;100.00;99411.34;5072294;28;20610;-78
2023/01/18 02:29:32;;;;;;;6.68;2.45;;;;;;;-1.00;100.00;99409.09;5039346;28;20075;-76
2023/01/18 02:32:27;;;;;;;5.40;3.00;;;;;;;-1.31;100.00;99375.81;5039122;28;20086;-79
2023/01/18 02:35:11;;;;;;;7.95;2.22;;;;;;;-1.14;100.00;99423.50;5025167;28;20117;-79
2023/01/18 02:37:41;;;;;;;2.83;1.92;;;;;;;-1.25;100.00;99420.94;5055956;28;20157;-76
2023/01/18 02:40:46;;;;;;;5.78;2.03;;;;;;;-1.40;100.00;99430.19;5071842;28;20031;-76
2023/01/18 02:48:44;;;;;;;9.55;2.08;;;;;;;-1.79;100.00;99424.72;5072168;28;20101;-78
2023/01/18 02:51:10;;;;;;;5.32;1.88;;;;;;;-1.70;100.00;99433.63;5038998;28;20029;-78
2023/01/18 02:53:46;;;;;;;2.53;1.30;;;;;;;-1.70;100.00;99384.38;5056743;28;20025;-78
2023/01/18 02:56:16;;;;;;;8.70;2.40;;;;;;;-1.47;100.00;99369.25;5059464;28;20032;-79
2023/01/18 02:58:48;;;;;;;6.50;1.67;;;;;;;-1.33;100.00;99381.22;5042599;28;20043;-78
2023/01/18 03:01:17;;;;;;;4.43;1.30;;;;;;;-1.23;100.00;99407.63;5059485;28;20044;-79
2023/01/18 03:03:46;;;;;;;1.73;0.90;;;;;;;-1.20;100.00;99431.94;5059153;28;20032;-79
2023/01/18 03:06:12;;;;;;;3.10;1.10;;;;;;;-1.24;100.00;99435.81;5059387;28;20036;-79
2023/01/18 03:08:48;;;;;;;1.45;1.10;;;;;;;-1.36;100.00;99452.69;5042635;28;20029;-80
2023/01/18 03:11:22;;;;;;;1.80;1.10;;;;;;;-1.55;100.00;99448.16;5042513;28;20043;-81
2023/01/18 03:14:06;;;;;;;0.82;0.73;;;;;;;-1.60;100.00;99459.06;5059172;28;20037;-80
2023/01/18 03:17:01;;;;;;;5.68;1.15;;;;;;;-1.69;100.00;99472.19;5059137;28;20056;-80
2023/01/18 03:23:36;;;;;;;2.75;1.10;;;;;;;-2.08;100.00;99459.59;5076363;28;20024;-78
2023/01/18 03:25:16;;;;;;;0.85;0.85;;;;;;;-2.08;100.00;99480.66;5061597;28;20029;-78
2023/01/18 03:35:57;;;;;;;2.92;0.80;;;;;;;-2.13;100.00;99508.34;5075348;28;20108;-80
2023/01/18 03:38:39;;;;;;;2.88;1.30;;;;;;;-2.02;100.00;99495.13;5058551;28;20124;-80
2023/01/18 03:41:06;;;;;;;2.60;1.15;;;;;;;-1.90;100.00;99504.66;5056575;28;20075;-80
2023/01/18 03:43:36;;;;;;;0.88;0.70;;;;;;;-1.87;100.00;99499.13;5058515;28;20028;-81
2023/01/18 03:46:03;;;;;;;2.35;0.80;;;;;;;-1.96;100.00;99497.22;5042683;28;20052;-79
2023/01/18 03:48:30;;;;;;;3.38;1.20;;;;;;;-1.91;100.00;99505.59;5075250;28;20474;-80
2023/01/18 03:51:19;;;;;;;0.82;0.80;;;;;;;-1.89;100.00;99489.69;5041927;28;20028;-79
2023/01/18 03:54:00;;;;;;;2.08;0.80;;;;;;;-1.82;100.00;99482.94;5049903;28;20442;-80
2023/01/18 03:56:37;;;;;;;1.42;0.85;;;;;;;-1.69;100.00;99504.66;5042042;28;20471;-80
2023/01/18 03:59:04;;;;;;;2.88;1.00;;;;;;;-1.66;100.00;99501.78;5075299;28;20395;-80
2023/01/18 04:01:30;;;;;;;2.55;0.90;;;;;;;-1.64;100.00;99489.31;5058519;28;20036;-79
2023/01/18 04:03:56;;;;;;;2.85;0.82;;;;;;;-1.50;100.00;99505.75;5057729;28;20039;-79
2023/01/18 04:06:22;;;;;;;2.88;1.00;;;;;;;-1.45;100.00;99522.84;5058323;28;20091;-80
2023/01/18 04:08:51;;;;;;;1.88;1.00;;;;;;;-1.50;100.00;99525.03;5074709;28;20066;-79
2023/01/18 04:11:17;;;;;;;2.08;0.95;;;;;;;-1.45;100.00;99532.56;5074735;28;20021;-80
2023/01/18 04:13:42;;;;;;;4.75;1.02;;;;;;;-1.55;100.00;99532.50;5041309;28;20360;-82
2023/01/18 04:16:08;;;;;;;2.72;1.00;;;;;;;-1.65;100.00;99542.13;5057611;28;20055;-80
2023/01/18 04:18:34;;;;;;;3.13;0.70;;;;;;;-1.85;100.00;99525.34;5057998;28;20029;-79
2023/01/18 04:20:59;;;;;;;4.95;1.00;;;;;;;-1.81;100.00;99537.28;5074088;28;20032;-79
2023/01/18 04:23:25;;;;;;;2.88;1.15;;;;;;;-1.81;100.00;99548.66;5057476;28;20033;-80
2023/01/18 04:25:51;;;;;;;1.50;0.90;;;;;;;-1.80;100.00;99550.34;5074151;28;20021;-78
2023/01/18 04:28:24;;;;;;;2.10;1.15;;;;;;;-1.68;100.00;99556.41;5057746;28;20455;-80
2023/01/18 04:30:53;;;;;;;9.10;1.70;;;;;;;-1.57;100.00;99545.78;5058706;28;20031;-80
2023/01/18 04:33:20;;;;;;;5.03;1.20;;;;;;;-1.51;100.00;99555.00;5057497;28;20441;-79
2023/01/18 04:35:47;;;;;;;0.80;0.75;;;;;;;-1.37;100.00;99564.41;5074139;28;20115;-80
2023/01/18 04:38:12;;;;;;;4.38;1.65;;;;;;;-1.31;100.00;99544.59;5073982;28;20031;-80
2023/01/18 04:40:38;;;;;;;2.08;1.20;;;;;;;-1.08;100.00;99554.03;5057416;28;20025;-80
2023/01/18 04:43:04;;;;;;;9.23;0.95;;;;;;;-0.92;100.00;99551.75;5057101;28;20041;-79
2023/01/18 04:45:30;;;;;;;0.80;0.80;;;;;;;-0.70;100.00;99557.78;5041092;28;20420;-80
2023/01/18 04:47:56;;;;;;;6.75;1.25;;;;;;;-0.50;100.00;99574.56;5057557;28;20186;-80
2023/01/18 04:50:22;;;;;;;8.82;1.95;;;;;;;-0.41;100.00;99576.38;5057472;28;20043;-80
2023/01/18 04:52:47;;;;;;;3.05;1.27;;;;;;;-0.45;100.00;99553.84;5073687;28;20025;-79
2023/01/18 04:55:14;;;;;;;5.80;1.60;;;;;;;-0.32;100.00;99583.50;5056912;28;20032;-80
2023/01/18 04:57:41;;;;;;;6.43;0.95;;;;;;;-0.23;100.00;99603.81;5057132;28;20049;-79
2023/01/18 05:00:08;;;;;;;2.47;0.95;;;;;;;-0.18;100.00;99613.16;5073749;28;20082;-79
2023/01/18 05:02:34;;;;;;;11.25;2.25;;;;;;;-0.03;100.00;99603.84;5057232;28;20044;-79
2023/01/18 05:05:00;;;;;;;5.07;1.98;;;;;;;0.15;100.00;99604.03;5040248;28;20115;-79
2023/01/18 05:07:25;;;;;;;0.60;0.60;;;;;;;0.25;100.00;99609.34;5040553;28;20127;-78
2023/01/18 05:09:51;;;;;;;0.60;0.60;;;;;;;0.34;100.00;99609.31;5057157;28;20025;-77
2023/01/18 05:12:17;;;;;;;0.50;0.50;;;;;;;0.42;100.00;99625.34;5073309;28;20455;-77
2023/01/18 05:14:43;;;;;;;0.50;0.50;;;;;;;0.48;100.00;99620.47;5073210;28;20033;-77
2023/01/18 05:17:08;;;;;;;0.40;0.40;;;;;;;0.49;100.00;99608.91;5072359;28;20039;-77
2023/01/18 05:19:34;;;;;;;0.40;0.40;;;;;;;0.44;100.00;99620.75;5056889;28;20082;-76
2023/01/18 05:22:00;;;;;;;0.40;0.40;;;;;;;0.41;100.00;99615.72;5040316;28;20032;-77
2023/01/18 05:24:26;;;;;;;0.40;0.40;;;;;;;0.43;100.00;99603.22;5039992;28;20108;-77
2023/01/18 05:26:52;;;;;;;0.50;0.50;;;;;;;0.47;100.00;99608.22;5056360;28;20389;-77
2023/01/18 05:29:17;;;;;;;0.50;0.50;;;;;;;0.43;100.00;99602.38;5056381;28;20115;-77
2023/01/18 05:31:43;;;;;;;0.40;0.40;;;;;;;0.38;100.00;99594.84;5039494;28;20390;-77
2023/01/18 05:34:09;;;;;;;0.50;0.50;;;;;;;0.35;100.00;99613.66;5056436;28;20415;-76
2023/01/18 05:36:35;;;;;;;0.40;0.40;;;;;;;0.34;100.00;99613.78;5056380;28;20067;-78
2023/01/18 05:39:01;;;;;;;0.43;0.43;;;;;;;0.24;100.00;99618.22;5072752;28;20028;-76
2023/01/18 05:41:26;;;;;;;0.50;0.50;;;;;;;0.17;100.00;99612.66;5039929;28;20035;-78
2023/01/18 05:43:52;;;;;;;0.40;0.40;;;;;;;0.20;100.00;99622.94;5039619;28;20029;-75
2023/01/18 05:46:17;;;;;;;0.50;0.50;;;;;;;0.20;100.00;99623.78;5056479;28;20078;-76
2023/01/18 05:48:43;;;;;;;0.45;0.45;;;;;;;0.18;100.00;99636.28;5039479;28;20379;-75
2023/01/18 05:51:10;;;;;;;0.50;0.50;;;;;;;0.22;100.00;99652.75;5039813;28;20398;-76
2023/01/18 05:53:36;;;;;;;0.50;0.50;;;;;;;0.19;100.00;99651.19;5056275;28;20040;-76
2023/01/18 05:56:04;;;;;;;0.40;0.40;;;;;;;0.15;100.00;99635.75;5072584;28;20025;-76
2023/01/18 05:58:30;;;;;;;0.50;0.50;;;;;;;0.14;100.00;99648.13;5072432;28;20090;-76
2023/01/18 06:00:57;;;;;;;0.40;0.40;;;;;;;0.08;100.00;99653.97;5056397;28;20059;-76
2023/01/18 06:03:24;;;;;;;1.30;0.70;;;;;;;0.10;100.00;99654.66;5056120;28;20113;-76
2023/01/18 06:05:50;;;;;;;0.77;0.77;;;;;;;0.13;100.00;99657.03;5072737;28;20546;-76
2023/01/18 06:08:17;;;;;;;0.60;0.60;;;;;;;0.12;100.00;99665.09;5039647;28;20060;-76
2023/01/18 06:10:42;;;;;;;0.50;0.50;;;;;;;0.08;100.00;99671.59;5039216;28;20072;-76
2023/01/18 06:13:09;;;;;;;0.40;0.40;;;;;;;0.07;100.00;99677.88;5039073;28;20083;-77
2023/01/18 06:15:35;;;;;;;0.45;0.45;;;;;;;0.04;100.00;99680.78;5055570;28;20433;-76
2023/01/18 06:18:01;;;;;;;0.40;0.40;;;;;;;0.08;100.00;99688.34;5039277;28;20459;-76
2023/01/18 06:20:29;;;;;;;0.50;0.50;;;;;;;0.14;100.00;99693.06;5055912;28;20085;-78
2023/01/18 06:22:58;;;;;;;0.50;0.50;;;;;;;0.18;100.00;99709.47;5056157;28;20037;-77
2023/01/18 06:25:23;;;;;;;0.50;0.50;;;;;;;0.13;100.00;99711.69;5039252;28;20037;-77
2023/01/18 06:27:49;;;;;;;0.50;0.50;;;;;;;0.16;100.00;99708.78;5055290;28;20037;-77
2023/01/18 06:30:16;;;;;;;0.40;0.40;;;;;;;0.17;100.00;99713.09;5055357;28;20032;-77
2023/01/18 06:32:41;;;;;;;0.50;0.50;;;;;;;0.21;100.00;99739.16;5055592;28;20037;-77
2023/01/18 06:35:07;;;;;;;0.50;0.50;;;;;;;0.21;100.00;99744.44;5038979;28;20036;-76
2023/01/18 06:37:33;;;;;;;0.50;0.50;;;;;;;0.26;100.00;99749.28;5055664;28;20040;-77
2023/01/18 06:39:58;;;;;;;0.50;0.50;;;;;;;0.31;100.00;99755.03;5071926;28;20197;-77
2023/01/18 06:42:24;;;;;;;0.50;0.50;;;;;;;0.34;100.00;99754.75;5053822;28;20485;-77
2023/01/18 06:44:53;;;;;;;0.50;0.50;;;;;;;0.35;100.00;99751.16;5054802;28;20552;-78
2023/01/18 06:47:22;;;;;;;0.50;0.50;;;;;;;0.36;100.00;99763.38;5052966;28;20102;-78
2023/01/18 06:49:47;;;;;;;0.45;0.45;;;;;;;0.34;100.00;99757.38;5039050;28;20032;-78
2023/01/18 06:52:29;;;;;;;0.85;0.60;;;;;;;0.34;100.00;99762.69;5039050;28;20432;-79
2023/01/18 06:54:54;;;;;;;0.40;0.40;;;;;;;0.29;100.00;99757.00;5038799;28;20467;-78
2023/01/18 06:57:20;;;;;;;0.40;0.40;;;;;;;0.40;100.00;99783.31;5038554;28;20119;-77
2023/01/18 06:59:46;;;;;;;0.50;0.50;;;;;;;0.48;100.00;99795.00;5038671;28;20024;-78
2023/01/18 07:02:15;;;;;;;0.47;0.47;;;;;;;0.47;100.00;99785.41;5038689;28;20394;-77
2023/01/18 07:04:47;;;;;;;0.50;0.50;;;;;;;0.46;100.00;99802.28;5038859;28;20044;-77
2023/01/18 07:07:13;;;;;;;0.50;0.50;;;;;;;0.45;100.00;99812.00;5038802;28;20036;-76
2023/01/18 07:09:39;;;;;;;0.50;0.50;;;;;;;0.36;100.00;99821.56;5055250;28;20123;-76
2023/01/18 07:12:05;;;;;;;0.50;0.50;;;;;;;0.27;100.00;99819.72;5038873;28;20071;-77
2023/01/18 07:14:30;;;;;;;0.50;0.50;;;;;;;0.13;100.00;99828.84;5054882;28;20120;-77
2023/01/18 07:16:56;;;;;;;0.50;0.50;;;;;;;0.06;100.00;99835.63;5055405;28;20044;-77
2023/01/18 07:19:22;;;;;;;0.50;0.50;;;;;;;0.01;100.00;99839.63;5054949;28;20386;-76
2023/01/18 07:21:48;;;;;;;0.50;0.50;;;;;;;-0.01;100.00;99840.59;5071478;28;20024;-76
2023/01/18 07:24:14;;;;;;;0.70;0.70;;;;;;;-0.09;100.00;99835.13;5071372;28;20111;-79
2023/01/18 07:26:40;;;;;;;0.50;0.50;;;;;;;-0.11;100.00;99839.69;5055201;28;20119;-77
2023/01/18 07:29:07;;;;;;;0.50;0.50;;;;;;;-0.16;100.00;99843.69;5038733;28;20040;-76
2023/01/18 07:31:33;;;;;;;0.50;0.50;;;;;;;-0.13;100.00;99844.28;5055333;28;20036;-78
2023/01/18 07:33:59;;;;;;;0.50;0.50;;;;;;;-0.01;100.00;99859.09;5054724;28;20084;-77
2023/01/18 07:36:25;;;;;;;0.50;0.50;;;;;;;0.07;100.00;99854.97;5038595;28;20036;-76
2023/01/18 07:38:51;;;;;;;0.50;0.50;;;;;;;0.13;100.00;99852.66;5038562;28;20128;-77
2023/01/18 07:41:16;;;;;;;0.50;0.50;;;;;;;0.15;100.00;99839.28;5058696;28;20020;-76
2023/01/18 07:43:43;;;;;;;0.50;0.50;;;;;;;0.24;100.00;99866.72;5041806;28;20033;-77
2023/01/18 07:46:15;;;;;;;0.50;0.50;;;;;;;0.12;100.00;99868.63;5058573;28;20490;-77
2023/01/18 07:48:43;;;;;;;0.50;0.50;;;;;;;0.17;100.00;99872.56;5058352;28;20028;-76
2023/01/18 07:51:09;;;;;;;0.50;0.50;;;;;;;0.21;100.00;99883.69;5042218;28;20033;-78
2023/01/18 07:53:36;;;;;;;0.50;0.50;;;;;;;0.12;100.00;99881.84;5058496;28;20497;-76
2023/01/18 07:56:05;;;;;;;0.50;0.50;;;;;;;0.14;100.00;99887.84;5075065;28;20028;-77
2023/01/18 07:58:31;;;;;;;0.50;0.50;;;;;;;0.07;100.00;99892.81;5074728;28;20035;-77
2023/01/18 08:01:05;;;;;;;0.50;0.50;;;;;;;-0.04;100.00;99903.44;5041899;28;20114;-76
2023/01/18 08:03:31;;;;;;;0.47;0.47;;;;;;;-0.18;100.00;99899.31;5074934;28;20024;-77
2023/01/18 08:05:58;;;;;;;0.40;0.40;;;;;;;-0.24;100.00;99899.81;5042038;28;20106;-76
2023/01/18 08:08:26;;;;;;;0.50;0.50;;;;;;;-0.43;100.00;99894.38;5041605;28;20068;-76
2023/01/18 08:10:56;;;;;;;0.50;0.50;;;;;;;-0.54;100.00;99896.09;5041705;28;20028;-76
2023/01/18 08:13:23;;;;;;;0.50;0.50;;;;;;;-0.50;100.00;99913.38;5074451;28;20029;-77
2023/01/18 08:15:57;;;;;;;0.50;0.50;;;;;;;-0.49;100.00;99912.41;5041763;28;20211;-77
2023/01/18 08:18:22;;;;;;;0.60;0.60;;;;;;;-0.36;100.00;99914.06;5058397;28;20043;-79
2023/01/18 08:20:48;;;;;;;0.50;0.50;;;;;;;-0.20;100.00;99922.38;5058001;28;20028;-78
2023/01/18 08:23:15;;;;;;;0.50;0.50;;;;;;;-0.05;100.00;99931.69;5057681;28;20082;-79
2023/01/18 08:25:42;;;;;;;0.93;0.52;;;;;;;0.12;100.00;99937.34;5040991;28;20033;-78
2023/01/18 08:28:08;;;;;;;0.50;0.50;;;;;;;0.12;100.00;99932.06;5074019;28;20101;-78
2023/01/18 08:30:37;;;;;;;0.50;0.50;;;;;;;0.11;100.00;99940.97;5057488;28;20453;-78
2023/01/18 08:33:04;;;;;;;0.50;0.50;;;;;;;0.17;100.00;99951.03;5040836;28;20034;-76
2023/01/18 08:35:33;;;;;;;0.50;0.50;;;;;;;0.24;100.00;99956.63;5073982;28;20109;-76
2023/01/18 08:38:00;;;;;;;0.50;0.50;;;;;;;0.41;100.00;99967.47;5040955;28;20098;-79
2023/01/18 08:40:26;;;;;;;0.50;0.50;;;;;;;0.52;100.00;99966.53;5057086;28;20059;-78
2023/01/18 08:42:59;;;;;;;0.50;0.50;;;;;;;0.78;100.00;99996.06;5040668;28;20381;-76
2023/01/18 08:45:26;;;;;;;0.90;0.70;;;;;;;0.98;100.00;100009.38;5073921;28;20025;-79
2023/01/18 08:48:01;;;;;;;6.47;1.13;;;;;;;1.30;100.00;99986.25;5057622;28;20040;-77
2023/01/18 08:50:28;;;;;;;3.88;0.95;;;;;;;1.42;100.00;100015.28;5056601;28;20108;-77
2023/01/18 08:52:53;;;;;;;0.50;0.50;;;;;;;1.43;100.00;100032.81;5073602;28;20036;-76
2023/01/18 08:55:21;;;;;;;1.45;0.75;;;;;;;1.32;100.00;100023.19;5057294;28;20406;-78
2023/01/18 08:57:48;;;;;;;2.80;0.82;;;;;;;1.29;100.00;100008.38;5073429;28;20046;-76
2023/01/18 09:00:15;;;;;;;1.40;0.50;;;;;;;1.25;100.00;100011.47;5056960;28;20077;-77
2023/01/18 09:02:41;;;;;;;0.52;0.52;;;;;;;1.22;100.00;100001.16;5073503;28;20028;-77
2023/01/18 09:05:07;;;;;;;0.60;0.60;;;;;;;1.12;100.00;100006.41;5040341;28;20029;-77
2023/01/18 09:07:33;;;;;;;0.50;0.50;;;;;;;1.13;100.00;100012.53;5040567;28;20036;-77
2023/01/18 09:09:58;;;;;;;0.50;0.50;;;;;;;1.15;100.00;100013.22;5056728;28;20035;-77
2023/01/18 09:12:24;;;;;;;0.50;0.50;;;;;;;1.14;100.00;100012.41;5056432;28;20025;-77
2023/01/18 09:14:50;;;;;;;0.50;0.50;;;;;;;1.08;100.00;100016.41;5073186;28;20040;-77
2023/01/18 09:17:18;;;;;;;0.50;0.50;;;;;;;1.09;100.00;100022.56;5040418;28;20029;-77
2023/01/18 09:19:44;;;;;;;0.50;0.50;;;;;;;1.05;100.00;100016.66;5056781;28;20467;-77
2023/01/18 09:22:10;;;;;;;0.60;0.60;;;;;;;0.96;100.00;100020.13;5056948;28;20071;-77
2023/01/18 09:24:36;;;;;;;0.50;0.50;;;;;;;0.88;100.00;100014.66;5056446;28;20486;-76
2023/01/18 09:27:01;;;;;;;0.52;0.52;;;;;;;0.76;100.00;100020.97;5072824;28;20032;-77
2023/01/18 09:29:30;;;;;;;0.50;0.50;;;;;;;0.67;100.00;100027.06;5040848;28;20037;-76
2023/01/18 09:31:56;;;;;;;0.50;0.50;;;;;;;0.54;100.00;100021.97;5040044;28;20040;-76
2023/01/18 09:34:22;;;;;;;0.50;0.50;;;;;;;0.45;100.00;100026.25;5040195;28;20036;-76
2023/01/18 09:36:50;;;;;;;0.50;0.50;;;;;;;0.39;100.00;100029.38;5056678;28;20032;-77
2023/01/18 09:39:15;;;;;;;0.85;0.60;;;;;;;0.42;100.00;100034.41;5073248;28;20028;-77
2023/01/18 09:41:51;;;;;;;0.70;0.70;;;;;;;0.44;100.00;100040.41;5039660;28;20448;-76
2023/01/18 09:44:19;;;;;;;0.50;0.50;;;;;;;0.44;100.00;100043.91;5056284;28;20032;-77
2023/01/18 09:46:49;;;;;;;0.50;0.50;;;;;;;0.51;100.00;100048.69;5056358;28;20036;-76
2023/01/18 09:49:18;;;;;;;0.55;0.55;;;;;;;0.57;100.00;100033.13;5056322;28;20403;-78
2023/01/18 09:51:52;;;;;;;1.17;1.05;;;;;;;0.63;100.00;100042.34;5039646;28;20043;-76
2023/01/18 09:54:22;;;;;;;0.60;0.60;;;;;;;1.15;100.00;100048.50;5039368;28;20390;-76
2023/01/18 09:56:56;;;;;;;0.60;0.60;;;;;;;2.01;100.00;100050.66;5072560;28;20106;-77
2023/01/18 09:59:39;;;;;;;0.60;0.60;;;;;;;2.91;100.00;100060.97;5056093;28;20063;-77
2023/01/18 10:02:22;;;;;;;0.60;0.60;;;;;;;3.13;100.00;100059.78;5039116;28;20032;-76
2023/01/18 10:04:53;;;;;;;0.77;0.77;;;;;;;3.35;100.00;100069.19;5055998;28;20103;-77
2023/01/18 10:07:21;;;;;;;0.57;0.57;;;;;;;3.58;100.00;100074.13;5072560;28;20127;-78
2023/01/18 10:09:51;;;;;;;12.20;0.80;;;;;;;3.68;100.00;100051.84;5056007;28;20087;-77
2023/01/18 10:12:25;;;;;;;2.50;1.10;;;;;;;3.84;100.00;100082.25;5055583;28;20031;-76
2023/01/18 10:15:07;;;;;;;0.95;0.75;;;;;;;4.28;100.00;100077.88;5072549;28;20032;-77
2023/01/18 10:17:39;;;;;;;0.80;0.80;;;;;;;5.46;100.00;100079.22;5039458;28;20036;-77
2023/01/18 10:20:39;;;;;;;0.50;0.50;;;;;;;4.90;100.00;100087.72;5055655;28;20036;-77
2023/01/18 10:23:13;;;;;;;1.33;0.50;;;;;;;3.28;100.00;100084.88;5055722;28;20043;-77
2023/01/18 10:26:08;;;;;;;0.60;0.60;;;;;;;2.48;100.00;100093.28;5039232;28;20506;-76
2023/01/18 10:28:47;;;;;;;0.95;0.70;;;;;;;2.92;100.00;100089.19;5071790;28;20040;-77
2023/01/18 10:31:22;;;;;;;0.80;0.80;;;;;;;5.55;100.00;100105.94;5072539;28;20064;-78
2023/01/18 10:33:52;;;;;;;4.88;1.42;;;;;;;6.98;100.00;100102.22;5055828;28;20123;-77
2023/01/18 10:36:31;;;;;;;0.90;0.90;;;;;;;8.14;95.68;100089.13;5055588;28;20394;-77
2023/01/18 10:38:59;;;;;;;0.60;0.60;;;;;;;8.37;95.07;100089.16;5072264;28;20043;-78
2023/01/18 10:41:28;;;;;;;0.75;0.70;;;;;;;8.04;97.01;100088.50;5073210;28;20032;-77
2023/01/18 10:43:54;;;;;;;0.60;0.60;;;;;;;8.10;96.90;100087.84;5038827;28;20036;-78
2023/01/18 10:46:20;;;;;;;0.60;0.60;;;;;;;6.85;100.00;100096.56;5038509;28;20497;-77
2023/01/18 10:48:50;;;;;;;0.68;0.68;;;;;;;7.26;100.00;100075.97;5072244;28;20036;-76
2023/01/18 10:51:35;;;;;;;1.20;1.20;;;;;;;8.27;95.38;100088.56;5071947;28;20029;-78
2023/01/18 10:54:27;;;;;;;2.03;0.90;;;;;;;8.58;92.36;100095.75;5038985;28;20040;-78
2023/01/18 10:57:04;;;;;;;1.33;0.70;;;;;;;8.53;91.54;100071.34;5069203;28;20107;-78
2023/01/18 10:59:38;;;;;;;0.80;0.80;;;;;;;8.47;92.46;100097.00;5071953;28;20032;-78
2023/01/18 11:02:18;;;;;;;0.60;0.60;;;;;;;7.60;95.35;100107.81;5071773;28;20471;-78
2023/01/18 11:04:44;;;;;;;0.60;0.60;;;;;;;6.87;100.00;100099.91;5054915;28;20028;-78
2023/01/18 11:07:10;;;;;;;1.23;0.70;;;;;;;7.69;97.17;100089.88;5055411;28;20024;-79
2023/01/18 11:09:58;;;;;;;0.80;0.80;;;;;;;8.44;92.59;100092.00;5055452;28;20120;-79
2023/01/18 11:12:41;;;;;;;1.58;0.90;;;;;;;8.80;90.87;100091.38;5055484;28;20466;-79
2023/01/18 11:15:13;;;;;;;0.60;0.60;;;;;;;9.07;90.23;100098.00;5073998;28;20028;-79
2023/01/18 11:17:57;;;;;;;0.70;0.70;;;;;;;9.19;88.86;100093.88;5059307;28;20028;-79
2023/01/18 11:20:28;;;;;;;2.05;0.90;;;;;;;9.06;89.58;100093.66;5076042;28;20033;-78
2023/01/18 11:22:59;;;;;;;1.10;0.50;;;;;;;8.13;93.75;100092.81;5075874;28;20032;-80
2023/01/18 11:25:26;;;;;;;0.80;0.80;;;;;;;7.35;99.23;100088.28;5059110;28;20064;-79
2023/01/18 11:27:59;;;;;;;0.60;0.60;;;;;;;6.99;100.00;100075.34;5058633;28;20034;-79
2023/01/18 11:30:26;;;;;;;6.22;1.20;;;;;;;6.23;100.00;100108.53;5075158;28;20074;-78
2023/01/18 11:32:52;;;;;;;0.60;0.60;;;;;;;5.90;100.00;100104.91;5075481;28;20047;-80
2023/01/18 11:35:35;;;;;;;0.50;0.50;;;;;;;6.10;100.00;100114.34;5041966;28;20382;-78
2023/01/18 11:38:01;;;;;;;;;;;;;;;6.15;100.00;100090.66;5059089;28;20056;-78
2023/01/18 11:40:33;;;;;;;0.60;0.60;;;;;;;5.59;100.00;100116.13;5058738;28;19916;-79
2023/01/18 11:43:11;;;;;;;0.70;0.70;;;;;;;5.77;100.00;100112.53;5075026;28;20115;-80
2023/01/18 11:45:42;;;;;;;0.70;0.70;;;;;;;6.74;100.00;100114.59;5075088;28;20060;-80
2023/01/18 11:48:29;;;;;;;3.95;1.02;;;;;;;7.04;100.00;100126.47;5042279;28;20040;-79
2023/01/18 11:51:10;;;;;;;2.60;0.90;;;;;;;6.90;100.00;100124.44;5075300;28;20024;-79
2023/01/18 11:53:53;;;;;;;2.08;0.80;;;;;;;6.64;100.00;100137.97;5075269;28;20028;-79
2023/01/18 11:56:28;;;;;;;;;;;;;;;6.34;100.00;100136.75;5076540;28;20059;-79
2023/01/18 11:58:53;;;;;;;2.13;0.90;;;;;;;6.68;100.00;100139.31;5075949;28;20007;-80
2023/01/18 12:01:53;;;;;;;5.97;0.90;;;;;;;7.29;100.00;100138.97;5074588;28;20588;-80
2023/01/18 12:04:35;;;;;;;4.82;1.70;;;;;;;7.85;100.00;100148.66;5074508;28;20039;-80
2023/01/18 12:07:25;;;;;;;2.85;1.30;;;;;;;8.48;100.00;100151.41;5058557;28;20037;-80
2023/01/18 12:09:53;;;;;;;10.13;1.63;;;;;;;9.12;96.65;100111.69;5057976;28;20090;-80
2023/01/18 12:12:52;;;;;;;4.45;1.10;;;;;;;7.75;100.00;100148.03;5041757;28;20530;-79
2023/01/18 12:15:41;;;;;;;2.30;1.13;;;;;;;9.10;97.02;100148.59;5058225;28;20041;-80